sensor_id;sensor_type;location;lat;lon;timestamp;temperature;humidity
77056;SHT30;67471;44.918;8.614;2023-02-28T00:01:59;6.29;69.60
77056;SHT30;67471;44.918;8.614;2023-02-28T00:05:03;6.41;69.07
77056;SHT30;67471;44.918;8.614;2023-02-28T00:08:07;6.34;69.35
77056;SHT30;67471;44.918;8.614;2023-02-28T00:11:13;6.21;70.27
77056;SHT30;67471;44.918;8.614;2023-02-28T00:14:17;6.17;70.50
77056;SHT30;67471;44.918;8.614;2023-02-28T00:17:21;6.10;70.53
77056;SHT30;67471;44.918;8.614;2023-02-28T00:20:25;6.13;70.15
77056;SHT30;67471;44.918;8.614;2023-02-28T00:23:28;6.26;69.55
77056;SHT30;67471;44.918;8.614;2023-02-28T00:26:32;6.20;69.41
77056;SHT30;67471;44.918;8.614;2023-02-28T00:29:36;6.26;69.14
77056;SHT30;67471;44.918;8.614;2023-02-28T00:32:40;6.26;69.08
77056;SHT30;67471;44.918;8.614;2023-02-28T00:35:44;6.13;69.73
77056;SHT30;67471;44.918;8.614;2023-02-28T00:38:49;6.23;68.92
77056;SHT30;67471;44.918;8.614;2023-02-28T00:41:53;6.33;67.50
77056;SHT30;67471;44.918;8.614;2023-02-28T00:44:57;6.21;67.94
77056;SHT30;67471;44.918;8.614;2023-02-28T00:48:01;6.19;67.67
77056;SHT30;67471;44.918;8.614;2023-02-28T00:51:05;6.14;67.64
77056;SHT30;67471;44.918;8.614;2023-02-28T00:54:09;6.19;67.12
77056;SHT30;67471;44.918;8.614;2023-02-28T00:57:13;6.19;66.74
77056;SHT30;67471;44.918;8.614;2023-02-28T01:00:17;6.23;66.22
77056;SHT30;67471;44.918;8.614;2023-02-28T01:03:21;6.24;65.79
77056;SHT30;67471;44.918;8.614;2023-02-28T01:06:26;6.20;65.51
77056;SHT30;67471;44.918;8.614;2023-02-28T01:09:30;6.14;65.69
77056;SHT30;67471;44.918;8.614;2023-02-28T01:12:35;6.17;65.11
77056;SHT30;67471;44.918;8.614;2023-02-28T01:15:49;6.09;64.24
77056;SHT30;67471;44.918;8.614;2023-02-28T01:18:54;6.10;63.94
77056;SHT30;67471;44.918;8.614;2023-02-28T01:22:03;6.06;64.03
77056;SHT30;67471;44.918;8.614;2023-02-28T01:25:07;6.07;64.13
77056;SHT30;67471;44.918;8.614;2023-02-28T01:28:12;5.93;64.46
77056;SHT30;67471;44.918;8.614;2023-02-28T01:31:16;6.03;64.26
77056;SHT30;67471;44.918;8.614;2023-02-28T01:34:20;6.16;63.40
77056;SHT30;67471;44.918;8.614;2023-02-28T01:37:23;6.07;63.23
77056;SHT30;67471;44.918;8.614;2023-02-28T01:40:27;6.11;63.43
77056;SHT30;67471;44.918;8.614;2023-02-28T01:46:54;6.17;62.71
77056;SHT30;67471;44.918;8.614;2023-02-28T01:50:01;6.05;63.06
77056;SHT30;67471;44.918;8.614;2023-02-28T01:53:14;6.06;62.62
77056;SHT30;67471;44.918;8.614;2023-02-28T01:56:23;5.99;62.26
77056;SHT30;67471;44.918;8.614;2023-02-28T01:59:59;6.07;61.92
77056;SHT30;67471;44.918;8.614;2023-02-28T02:03:08;6.06;62.01
77056;SHT30;67471;44.918;8.614;2023-02-28T02:06:13;6.07;61.62
77056;SHT30;67471;44.918;8.614;2023-02-28T02:09:17;6.06;61.76
77056;SHT30;67471;44.918;8.614;2023-02-28T02:12:27;5.96;62.13
77056;SHT30;67471;44.918;8.614;2023-02-28T02:15:42;6.06;61.97
77056;SHT30;67471;44.918;8.614;2023-02-28T02:38:36;6.06;62.41
77056;SHT30;67471;44.918;8.614;2023-02-28T02:41:49;6.03;62.71
77056;SHT30;67471;44.918;8.614;2023-02-28T02:45:00;6.03;62.21
77056;SHT30;67471;44.918;8.614;2023-02-28T02:48:07;5.88;62.27
77056;SHT30;67471;44.918;8.614;2023-02-28T02:51:18;5.83;62.29
77056;SHT30;67471;44.918;8.614;2023-02-28T02:54:27;5.95;62.08
77056;SHT30;67471;44.918;8.614;2023-02-28T02:57:42;5.86;62.45
77056;SHT30;67471;44.918;8.614;2023-02-28T03:00:53;6.02;61.73
77056;SHT30;67471;44.918;8.614;2023-02-28T03:03:59;5.92;62.51
77056;SHT30;67471;44.918;8.614;2023-02-28T03:07:04;5.93;62.32
77056;SHT30;67471;44.918;8.614;2023-02-28T03:10:37;5.82;63.15
77056;SHT30;67471;44.918;8.614;2023-02-28T03:17:24;5.78;62.71
77056;SHT30;67471;44.918;8.614;2023-02-28T03:20:40;5.86;62.38
77056;SHT30;67471;44.918;8.614;2023-02-28T03:24:08;5.86;62.40
77056;SHT30;67471;44.918;8.614;2023-02-28T03:27:27;5.69;62.55
77056;SHT30;67471;44.918;8.614;2023-02-28T03:31:10;5.76;62.53
77056;SHT30;67471;44.918;8.614;2023-02-28T03:34:23;5.82;62.22
77056;SHT30;67471;44.918;8.614;2023-02-28T03:37:28;5.68;62.62
77056;SHT30;67471;44.918;8.614;2023-02-28T03:40:34;5.68;63.04
77056;SHT30;67471;44.918;8.614;2023-02-28T03:43:45;5.66;62.62
77056;SHT30;67471;44.918;8.614;2023-02-28T03:47:07;5.59;62.29
77056;SHT30;67471;44.918;8.614;2023-02-28T03:50:20;5.63;62.72
77056;SHT30;67471;44.918;8.614;2023-02-28T03:53:35;5.59;62.98
77056;SHT30;67471;44.918;8.614;2023-02-28T03:56:45;5.66;62.87
77056;SHT30;67471;44.918;8.614;2023-02-28T03:59:58;5.62;62.82
77056;SHT30;67471;44.918;8.614;2023-02-28T04:03:03;5.58;63.27
77056;SHT30;67471;44.918;8.614;2023-02-28T04:06:08;5.54;63.18
77056;SHT30;67471;44.918;8.614;2023-02-28T04:09:16;5.40;63.53
77056;SHT30;67471;44.918;8.614;2023-02-28T04:12:20;5.37;62.94
77056;SHT30;67471;44.918;8.614;2023-02-28T04:15:26;5.47;63.37
77056;SHT30;67471;44.918;8.614;2023-02-28T04:18:31;5.41;63.31
77056;SHT30;67471;44.918;8.614;2023-02-28T04:21:37;5.41;63.36
77056;SHT30;67471;44.918;8.614;2023-02-28T04:24:42;5.34;63.99
77056;SHT30;67471;44.918;8.614;2023-02-28T04:27:46;5.27;63.52
77056;SHT30;67471;44.918;8.614;2023-02-28T04:30:58;5.30;64.11
77056;SHT30;67471;44.918;8.614;2023-02-28T04:34:01;5.38;63.35
77056;SHT30;67471;44.918;8.614;2023-02-28T04:37:05;5.30;64.03
77056;SHT30;67471;44.918;8.614;2023-02-28T04:40:10;5.37;64.06
77056;SHT30;67471;44.918;8.614;2023-02-28T04:43:14;5.31;64.23
77056;SHT30;67471;44.918;8.614;2023-02-28T04:46:17;5.21;63.87
77056;SHT30;67471;44.918;8.614;2023-02-28T04:49:21;5.24;63.80
77056;SHT30;67471;44.918;8.614;2023-02-28T04:52:27;5.21;64.22
77056;SHT30;67471;44.918;8.614;2023-02-28T04:55:31;5.34;63.85
77056;SHT30;67471;44.918;8.614;2023-02-28T04:58:34;5.38;63.38
77056;SHT30;67471;44.918;8.614;2023-02-28T05:01:38;5.28;63.79
77056;SHT30;67471;44.918;8.614;2023-02-28T05:04:42;5.48;63.35
77056;SHT30;67471;44.918;8.614;2023-02-28T05:07:46;5.42;63.26
77056;SHT30;67471;44.918;8.614;2023-02-28T05:10:50;5.34;63.77
77056;SHT30;67471;44.918;8.614;2023-02-28T05:13:53;5.40;63.26
77056;SHT30;67471;44.918;8.614;2023-02-28T05:16:57;5.26;63.95
77056;SHT30;67471;44.918;8.614;2023-02-28T05:20:01;5.26;64.15
77056;SHT30;67471;44.918;8.614;2023-02-28T05:23:05;5.37;63.78
77056;SHT30;67471;44.918;8.614;2023-02-28T05:26:08;5.28;64.17
77056;SHT30;67471;44.918;8.614;2023-02-28T05:29:12;5.38;63.77
77056;SHT30;67471;44.918;8.614;2023-02-28T05:32:16;5.40;63.71
77056;SHT30;67471;44.918;8.614;2023-02-28T05:35:20;5.49;63.11
77056;SHT30;67471;44.918;8.614;2023-02-28T05:38:23;5.40;63.51
77056;SHT30;67471;44.918;8.614;2023-02-28T05:41:27;5.56;63.11
77056;SHT30;67471;44.918;8.614;2023-02-28T05:44:31;5.27;63.42
77056;SHT30;67471;44.918;8.614;2023-02-28T05:47:35;5.35;63.19
77056;SHT30;67471;44.918;8.614;2023-02-28T05:50:38;5.38;62.84
77056;SHT30;67471;44.918;8.614;2023-02-28T05:53:42;5.47;62.49
77056;SHT30;67471;44.918;8.614;2023-02-28T05:56:46;5.28;63.11
77056;SHT30;67471;44.918;8.614;2023-02-28T05:59:50;5.28;63.11
77056;SHT30;67471;44.918;8.614;2023-02-28T06:02:54;5.28;63.93
77056;SHT30;67471;44.918;8.614;2023-02-28T06:05:59;5.40;63.09
77056;SHT30;67471;44.918;8.614;2023-02-28T06:09:06;5.34;62.98
77056;SHT30;67471;44.918;8.614;2023-02-28T06:12:10;5.47;62.83
77056;SHT30;67471;44.918;8.614;2023-02-28T06:15:14;5.51;62.65
77056;SHT30;67471;44.918;8.614;2023-02-28T06:18:19;5.42;62.62
77056;SHT30;67471;44.918;8.614;2023-02-28T06:21:23;5.38;62.78
77056;SHT30;67471;44.918;8.614;2023-02-28T06:24:27;5.35;63.09
77056;SHT30;67471;44.918;8.614;2023-02-28T06:27:34;5.30;63.09
77056;SHT30;67471;44.918;8.614;2023-02-28T06:30:38;5.40;62.63
77056;SHT30;67471;44.918;8.614;2023-02-28T06:33:43;5.40;62.81
77056;SHT30;67471;44.918;8.614;2023-02-28T06:36:50;5.56;61.93
77056;SHT30;67471;44.918;8.614;2023-02-28T06:39:54;5.58;61.73
77056;SHT30;67471;44.918;8.614;2023-02-28T06:42:59;5.35;61.82
77056;SHT30;67471;44.918;8.614;2023-02-28T06:46:05;5.49;60.84
77056;SHT30;67471;44.918;8.614;2023-02-28T06:49:10;5.37;60.92
77056;SHT30;67471;44.918;8.614;2023-02-28T06:52:14;5.32;60.38
77056;SHT30;67471;44.918;8.614;2023-02-28T06:55:18;5.47;59.98
77056;SHT30;67471;44.918;8.614;2023-02-28T06:58:21;5.35;59.80
77056;SHT30;67471;44.918;8.614;2023-02-28T07:01:25;5.49;59.78
77056;SHT30;67471;44.918;8.614;2023-02-28T07:04:31;5.48;60.01
77056;SHT30;67471;44.918;8.614;2023-02-28T07:07:34;5.45;60.15
77056;SHT30;67471;44.918;8.614;2023-02-28T07:10:40;5.41;59.48
77056;SHT30;67471;44.918;8.614;2023-02-28T07:13:43;5.40;58.88
77056;SHT30;67471;44.918;8.614;2023-02-28T07:16:47;5.65;58.93
77056;SHT30;67471;44.918;8.614;2023-02-28T07:19:50;5.83;57.99
77056;SHT30;67471;44.918;8.614;2023-02-28T07:22:54;5.96;57.56
77056;SHT30;67471;44.918;8.614;2023-02-28T07:25:59;6.21;56.73
77056;SHT30;67471;44.918;8.614;2023-02-28T07:29:03;6.11;57.33
77056;SHT30;67471;44.918;8.614;2023-02-28T07:32:07;6.09;57.80
77056;SHT30;67471;44.918;8.614;2023-02-28T07:35:11;5.88;58.05
77056;SHT30;67471;44.918;8.614;2023-02-28T07:38:15;5.95;57.48
77056;SHT30;67471;44.918;8.614;2023-02-28T07:41:21;5.98;58.15
77056;SHT30;67471;44.918;8.614;2023-02-28T07:44:27;5.83;57.81
77056;SHT30;67471;44.918;8.614;2023-02-28T07:47:30;6.00;57.45
77056;SHT30;67471;44.918;8.614;2023-02-28T07:50:34;6.05;57.37
77056;SHT30;67471;44.918;8.614;2023-02-28T07:53:39;5.80;57.52
77056;SHT30;67471;44.918;8.614;2023-02-28T07:56:43;5.82;57.50
77056;SHT30;67471;44.918;8.614;2023-02-28T07:59:47;5.76;57.76
77056;SHT30;67471;44.918;8.614;2023-02-28T08:02:51;5.75;57.62
77056;SHT30;67471;44.918;8.614;2023-02-28T08:05:55;5.75;57.42
77056;SHT30;67471;44.918;8.614;2023-02-28T08:08:59;5.88;56.57
77056;SHT30;67471;44.918;8.614;2023-02-28T08:12:02;5.55;56.83
77056;SHT30;67471;44.918;8.614;2023-02-28T08:15:07;5.42;58.45
77056;SHT30;67471;44.918;8.614;2023-02-28T08:18:10;5.76;57.55
77056;SHT30;67471;44.918;8.614;2023-02-28T08:21:14;5.71;57.74
77056;SHT30;67471;44.918;8.614;2023-02-28T08:24:18;5.69;57.00
77056;SHT30;67471;44.918;8.614;2023-02-28T08:27:22;5.76;57.17
77056;SHT30;67471;44.918;8.614;2023-02-28T08:30:26;5.99;57.49
77056;SHT30;67471;44.918;8.614;2023-02-28T08:33:30;6.10;57.29
77056;SHT30;67471;44.918;8.614;2023-02-28T08:36:35;6.30;56.91
77056;SHT30;67471;44.918;8.614;2023-02-28T08:39:38;6.13;57.28
77056;SHT30;67471;44.918;8.614;2023-02-28T08:42:42;6.42;56.39
77056;SHT30;67471;44.918;8.614;2023-02-28T08:45:46;6.72;56.05
77056;SHT30;67471;44.918;8.614;2023-02-28T08:48:54;6.77;56.48
77056;SHT30;67471;44.918;8.614;2023-02-28T08:51:58;6.55;56.35
77056;SHT30;67471;44.918;8.614;2023-02-28T08:55:02;6.81;55.92
77056;SHT30;67471;44.918;8.614;2023-02-28T08:58:06;6.75;55.28
77056;SHT30;67471;44.918;8.614;2023-02-28T09:01:13;7.02;55.18
77056;SHT30;67471;44.918;8.614;2023-02-28T09:04:16;6.98;55.49
77056;SHT30;67471;44.918;8.614;2023-02-28T09:07:20;6.68;54.68
77056;SHT30;67471;44.918;8.614;2023-02-28T09:10:24;6.98;54.68
77056;SHT30;67471;44.918;8.614;2023-02-28T09:13:28;7.10;54.72
77056;SHT30;67471;44.918;8.614;2023-02-28T09:16:33;7.06;54.01
77056;SHT30;67471;44.918;8.614;2023-02-28T09:19:37;7.19;53.80
77056;SHT30;67471;44.918;8.614;2023-02-28T09:22:41;7.44;53.49
77056;SHT30;67471;44.918;8.614;2023-02-28T09:25:52;7.77;52.28
77056;SHT30;67471;44.918;8.614;2023-02-28T09:28:56;7.98;51.53
77056;SHT30;67471;44.918;8.614;2023-02-28T09:32:02;8.01;51.17
77056;SHT30;67471;44.918;8.614;2023-02-28T09:35:06;8.46;50.37
77056;SHT30;67471;44.918;8.614;2023-02-28T09:38:11;8.56;50.33
77056;SHT30;67471;44.918;8.614;2023-02-28T09:41:17;8.77;50.59
77056;SHT30;67471;44.918;8.614;2023-02-28T09:44:40;8.99;50.04
77056;SHT30;67471;44.918;8.614;2023-02-28T09:47:47;9.07;49.12
77056;SHT30;67471;44.918;8.614;2023-02-28T09:51:14;8.64;49.63
77056;SHT30;67471;44.918;8.614;2023-02-28T09:54:22;9.18;49.36
77056;SHT30;67471;44.918;8.614;2023-02-28T09:57:37;9.22;49.23
77056;SHT30;67471;44.918;8.614;2023-02-28T10:00:43;9.49;49.35
77056;SHT30;67471;44.918;8.614;2023-02-28T10:03:59;9.46;50.25
77056;SHT30;67471;44.918;8.614;2023-02-28T10:07:18;9.53;50.30
77056;SHT30;67471;44.918;8.614;2023-02-28T10:13:51;9.72;50.46
77056;SHT30;67471;44.918;8.614;2023-02-28T10:16:59;9.71;50.57
77056;SHT30;67471;44.918;8.614;2023-02-28T10:20:13;9.43;51.01
77056;SHT30;67471;44.918;8.614;2023-02-28T10:23:34;9.52;50.38
77056;SHT30;67471;44.918;8.614;2023-02-28T10:26:38;9.49;48.92
77056;SHT30;67471;44.918;8.614;2023-02-28T10:29:45;9.39;49.15
77056;SHT30;67471;44.918;8.614;2023-02-28T10:32:51;9.38;49.84
77056;SHT30;67471;44.918;8.614;2023-02-28T10:35:57;8.96;48.89
77056;SHT30;67471;44.918;8.614;2023-02-28T10:39:00;8.83;48.89
77056;SHT30;67471;44.918;8.614;2023-02-28T10:42:27;9.32;47.92
77056;SHT30;67471;44.918;8.614;2023-02-28T10:45:35;9.28;48.59
77056;SHT30;67471;44.918;8.614;2023-02-28T10:48:43;9.59;49.04
77056;SHT30;67471;44.918;8.614;2023-02-28T10:51:52;9.51;47.20
77056;SHT30;67471;44.918;8.614;2023-02-28T10:55:24;9.39;49.26
77056;SHT30;67471;44.918;8.614;2023-02-28T10:58:46;9.87;48.30
77056;SHT30;67471;44.918;8.614;2023-02-28T11:01:51;9.65;48.44
77056;SHT30;67471;44.918;8.614;2023-02-28T11:04:56;9.41;47.13
77056;SHT30;67471;44.918;8.614;2023-02-28T11:08:14;9.00;47.40
77056;SHT30;67471;44.918;8.614;2023-02-28T11:11:18;8.69;48.85
77056;SHT30;67471;44.918;8.614;2023-02-28T11:14:33;8.46;48.54
77056;SHT30;67471;44.918;8.614;2023-02-28T11:17:38;8.02;50.16
77056;SHT30;67471;44.918;8.614;2023-02-28T11:20:48;8.12;51.12
77056;SHT30;67471;44.918;8.614;2023-02-28T11:23:59;8.36;50.51
77056;SHT30;67471;44.918;8.614;2023-02-28T11:27:05;8.29;51.46
77056;SHT30;67471;44.918;8.614;2023-02-28T11:30:36;8.15;51.58
77056;SHT30;67471;44.918;8.614;2023-02-28T11:33:52;7.85;52.68
77056;SHT30;67471;44.918;8.614;2023-02-28T11:36:57;7.61;52.64
77056;SHT30;67471;44.918;8.614;2023-02-28T11:40:04;7.82;52.64
77056;SHT30;67471;44.918;8.614;2023-02-28T11:43:21;7.67;52.36
77056;SHT30;67471;44.918;8.614;2023-02-28T11:46:35;7.92;51.87
77056;SHT30;67471;44.918;8.614;2023-02-28T11:56:29;8.70;51.48
77056;SHT30;67471;44.918;8.614;2023-02-28T12:06:33;8.64;51.77
77056;SHT30;67471;44.918;8.614;2023-02-28T12:09:50;9.11;51.31
77056;SHT30;67471;44.918;8.614;2023-02-28T12:13:18;9.03;51.04
77056;SHT30;67471;44.918;8.614;2023-02-28T12:26:53;8.85;51.19
77056;SHT30;67471;44.918;8.614;2023-02-28T12:30:13;9.04;51.89
77056;SHT30;67471;44.918;8.614;2023-02-28T12:33:21;9.34;51.34
77056;SHT30;67471;44.918;8.614;2023-02-28T12:36:25;9.53;51.06
77056;SHT30;67471;44.918;8.614;2023-02-28T12:39:36;9.83;50.45
77056;SHT30;67471;44.918;8.614;2023-02-28T12:42:45;9.78;49.81
77056;SHT30;67471;44.918;8.614;2023-02-28T12:45:57;9.73;50.56
77056;SHT30;67471;44.918;8.614;2023-02-28T12:49:10;9.71;50.65
77056;SHT30;67471;44.918;8.614;2023-02-28T12:52:18;9.78;49.94
77056;SHT30;67471;44.918;8.614;2023-02-28T12:55:38;9.89;50.33
77056;SHT30;67471;44.918;8.614;2023-02-28T12:58:50;10.06;49.29
77056;SHT30;67471;44.918;8.614;2023-02-28T13:09:02;10.76;47.92
77056;SHT30;67471;44.918;8.614;2023-02-28T13:12:14;10.78;47.86
77056;SHT30;67471;44.918;8.614;2023-02-28T13:15:28;10.57;48.56
77056;SHT30;67471;44.918;8.614;2023-02-28T13:21:43;10.83;48.04
77056;SHT30;67471;44.918;8.614;2023-02-28T13:24:52;10.85;49.30
77056;SHT30;67471;44.918;8.614;2023-02-28T13:27:57;11.09;48.30
77056;SHT30;67471;44.918;8.614;2023-02-28T13:31:05;11.20;47.77
77056;SHT30;67471;44.918;8.614;2023-02-28T13:34:14;11.44;47.48
77056;SHT30;67471;44.918;8.614;2023-02-28T13:40:34;11.40;47.56
77056;SHT30;67471;44.918;8.614;2023-02-28T13:44:01;11.75;45.82
77056;SHT30;67471;44.918;8.614;2023-02-28T13:50:29;11.88;45.17
77056;SHT30;67471;44.918;8.614;2023-02-28T13:53:47;11.33;46.60
77056;SHT30;67471;44.918;8.614;2023-02-28T14:04:30;12.08;45.20
77056;SHT30;67471;44.918;8.614;2023-02-28T14:07:03;11.87;45.76
77056;SHT30;67471;44.918;8.614;2023-02-28T14:10:08;11.66;46.10
77056;SHT30;67471;44.918;8.614;2023-02-28T14:13:41;11.71;46.89
77056;SHT30;67471;44.918;8.614;2023-02-28T14:16:48;11.56;46.91
77056;SHT30;67471;44.918;8.614;2023-02-28T14:19:53;11.56;46.67
77056;SHT30;67471;44.918;8.614;2023-02-28T14:23:15;11.33;47.39
77056;SHT30;67471;44.918;8.614;2023-02-28T14:26:49;11.01;49.00
77056;SHT30;67471;44.918;8.614;2023-02-28T14:33:47;10.54;50.87
77056;SHT30;67471;44.918;8.614;2023-02-28T14:37:00;10.50;51.02
77056;SHT30;67471;44.918;8.614;2023-02-28T14:40:17;10.52;52.35
77056;SHT30;67471;44.918;8.614;2023-02-28T14:43:25;10.54;51.35
77056;SHT30;67471;44.918;8.614;2023-02-28T14:46:40;10.37;51.68
77056;SHT30;67471;44.918;8.614;2023-02-28T14:49:45;10.17;52.48
77056;SHT30;67471;44.918;8.614;2023-02-28T14:52:54;10.31;52.27
77056;SHT30;67471;44.918;8.614;2023-02-28T14:55:58;10.44;51.89
77056;SHT30;67471;44.918;8.614;2023-02-28T14:59:05;10.45;51.50
77056;SHT30;67471;44.918;8.614;2023-02-28T15:02:25;10.47;51.78
77056;SHT30;67471;44.918;8.614;2023-02-28T15:05:29;10.58;51.55
77056;SHT30;67471;44.918;8.614;2023-02-28T15:08:33;10.75;51.34
77056;SHT30;67471;44.918;8.614;2023-02-28T15:11:39;10.81;50.51
77056;SHT30;67471;44.918;8.614;2023-02-28T15:14:44;10.61;51.35
77056;SHT30;67471;44.918;8.614;2023-02-28T15:17:56;10.58;50.48
77056;SHT30;67471;44.918;8.614;2023-02-28T15:21:04;10.68;49.80
77056;SHT30;67471;44.918;8.614;2023-02-28T15:24:37;10.54;49.54
77056;SHT30;67471;44.918;8.614;2023-02-28T15:27:45;10.51;50.50
77056;SHT30;67471;44.918;8.614;2023-02-28T15:31:01;10.41;50.49
77056;SHT30;67471;44.918;8.614;2023-02-28T15:34:06;10.31;51.06
77056;SHT30;67471;44.918;8.614;2023-02-28T15:40:49;10.03;51.24
77056;SHT30;67471;44.918;8.614;2023-02-28T15:47:30;10.00;51.45
77056;SHT30;67471;44.918;8.614;2023-02-28T15:50:34;9.97;51.31
77056;SHT30;67471;44.918;8.614;2023-02-28T15:53:59;9.99;51.60
77056;SHT30;67471;44.918;8.614;2023-02-28T15:57:05;10.04;51.49
77056;SHT30;67471;44.918;8.614;2023-02-28T16:00:19;10.02;51.71
77056;SHT30;67471;44.918;8.614;2023-02-28T16:03:37;10.06;52.27
77056;SHT30;67471;44.918;8.614;2023-02-28T16:06:44;9.97;53.04
77056;SHT30;67471;44.918;8.614;2023-02-28T16:09:48;10.02;53.13
77056;SHT30;67471;44.918;8.614;2023-02-28T16:12:56;9.97;53.23
77056;SHT30;67471;44.918;8.614;2023-02-28T16:16:01;9.94;53.16
77056;SHT30;67471;44.918;8.614;2023-02-28T16:19:07;9.93;53.17
77056;SHT30;67471;44.918;8.614;2023-02-28T16:22:11;9.65;53.42
77056;SHT30;67471;44.918;8.614;2023-02-28T16:25:17;9.75;52.85
77056;SHT30;67471;44.918;8.614;2023-02-28T16:28:29;9.55;53.87
77056;SHT30;67471;44.918;8.614;2023-02-28T16:31:37;9.43;54.47
77056;SHT30;67471;44.918;8.614;2023-02-28T16:34:43;9.38;55.00
77056;SHT30;67471;44.918;8.614;2023-02-28T16:37:54;9.45;54.57
77056;SHT30;67471;44.918;8.614;2023-02-28T16:40:59;9.38;54.98
77056;SHT30;67471;44.918;8.614;2023-02-28T16:44:09;9.32;54.84
77056;SHT30;67471;44.918;8.614;2023-02-28T16:47:13;9.27;55.13
77056;SHT30;67471;44.918;8.614;2023-02-28T16:50:21;9.27;55.20
77056;SHT30;67471;44.918;8.614;2023-02-28T16:53:25;9.15;55.74
77056;SHT30;67471;44.918;8.614;2023-02-28T16:56:30;9.03;56.22
77056;SHT30;67471;44.918;8.614;2023-02-28T16:59:33;8.93;56.46
77056;SHT30;67471;44.918;8.614;2023-02-28T17:02:37;8.84;56.97
77056;SHT30;67471;44.918;8.614;2023-02-28T17:05:41;8.62;57.52
77056;SHT30;67471;44.918;8.614;2023-02-28T17:08:45;8.67;57.58
77056;SHT30;67471;44.918;8.614;2023-02-28T17:11:49;8.64;57.80
77056;SHT30;67471;44.918;8.614;2023-02-28T17:14:53;8.59;57.78
77056;SHT30;67471;44.918;8.614;2023-02-28T17:17:57;8.49;57.71
77056;SHT30;67471;44.918;8.614;2023-02-28T17:21:01;8.39;57.68
77056;SHT30;67471;44.918;8.614;2023-02-28T17:24:05;8.31;57.96
77056;SHT30;67471;44.918;8.614;2023-02-28T17:27:11;8.18;58.17
77056;SHT30;67471;44.918;8.614;2023-02-28T17:30:18;8.13;58.08
77056;SHT30;67471;44.918;8.614;2023-02-28T17:33:22;7.88;58.55
77056;SHT30;67471;44.918;8.614;2023-02-28T17:36:26;7.98;58.33
77056;SHT30;67471;44.918;8.614;2023-02-28T17:39:30;8.08;58.20
77056;SHT30;67471;44.918;8.614;2023-02-28T17:42:34;7.98;58.42
77056;SHT30;67471;44.918;8.614;2023-02-28T17:45:38;7.90;58.66
77056;SHT30;67471;44.918;8.614;2023-02-28T17:48:42;7.84;58.92
77056;SHT30;67471;44.918;8.614;2023-02-28T17:51:47;7.78;58.73
77056;SHT30;67471;44.918;8.614;2023-02-28T17:54:52;7.67;59.27
77056;SHT30;67471;44.918;8.614;2023-02-28T17:57:56;7.57;59.56
77056;SHT30;67471;44.918;8.614;2023-02-28T18:01:00;7.46;59.87
77056;SHT30;67471;44.918;8.614;2023-02-28T18:04:04;7.43;60.12
77056;SHT30;67471;44.918;8.614;2023-02-28T18:07:11;7.32;60.59
77056;SHT30;67471;44.918;8.614;2023-02-28T18:10:17;7.20;60.91
77056;SHT30;67471;44.918;8.614;2023-02-28T18:13:22;7.26;60.70
77056;SHT30;67471;44.918;8.614;2023-02-28T18:16:26;7.24;60.97
77056;SHT30;67471;44.918;8.614;2023-02-28T18:19:31;7.03;61.53
77056;SHT30;67471;44.918;8.614;2023-02-28T18:22:35;7.05;61.41
77056;SHT30;67471;44.918;8.614;2023-02-28T18:25:39;6.95;61.56
77056;SHT30;67471;44.918;8.614;2023-02-28T18:28:45;6.98;61.43
77056;SHT30;67471;44.918;8.614;2023-02-28T18:31:49;6.96;61.11
77056;SHT30;67471;44.918;8.614;2023-02-28T18:34:53;6.98;60.78
77056;SHT30;67471;44.918;8.614;2023-02-28T18:37:57;6.88;61.46
77056;SHT30;67471;44.918;8.614;2023-02-28T18:41:03;6.91;60.98
77056;SHT30;67471;44.918;8.614;2023-02-28T18:44:08;6.67;62.09
77056;SHT30;67471;44.918;8.614;2023-02-28T18:47:13;6.77;62.19
77056;SHT30;67471;44.918;8.614;2023-02-28T18:50:17;6.79;62.44
77056;SHT30;67471;44.918;8.614;2023-02-28T18:53:21;6.70;62.73
77056;SHT30;67471;44.918;8.614;2023-02-28T18:56:25;6.72;62.85
77056;SHT30;67471;44.918;8.614;2023-02-28T18:59:30;6.70;62.55
77056;SHT30;67471;44.918;8.614;2023-02-28T19:02:35;6.68;62.42
77056;SHT30;67471;44.918;8.614;2023-02-28T19:05:39;6.67;62.51
77056;SHT30;67471;44.918;8.614;2023-02-28T19:08:43;6.57;63.20
77056;SHT30;67471;44.918;8.614;2023-02-28T19:11:47;6.51;63.48
77056;SHT30;67471;44.918;8.614;2023-02-28T19:14:51;6.50;63.76
77056;SHT30;67471;44.918;8.614;2023-02-28T19:17:55;6.47;64.17
77056;SHT30;67471;44.918;8.614;2023-02-28T19:20:59;6.34;64.85
77056;SHT30;67471;44.918;8.614;2023-02-28T19:24:03;6.31;65.09
77056;SHT30;67471;44.918;8.614;2023-02-28T19:27:07;6.30;65.30
77056;SHT30;67471;44.918;8.614;2023-02-28T19:30:11;6.40;65.02
77056;SHT30;67471;44.918;8.614;2023-02-28T19:33:15;6.31;65.14
77056;SHT30;67471;44.918;8.614;2023-02-28T19:36:20;6.21;65.47
77056;SHT30;67471;44.918;8.614;2023-02-28T19:39:24;6.21;65.27
77056;SHT30;67471;44.918;8.614;2023-02-28T19:42:28;6.20;64.86
77056;SHT30;67471;44.918;8.614;2023-02-28T19:45:36;6.11;65.13
77056;SHT30;67471;44.918;8.614;2023-02-28T19:48:40;5.88;66.29
77056;SHT30;67471;44.918;8.614;2023-02-28T19:51:47;5.92;66.38
77056;SHT30;67471;44.918;8.614;2023-02-28T19:54:50;5.80;66.91
77056;SHT30;67471;44.918;8.614;2023-02-28T19:57:54;5.79;66.91
77056;SHT30;67471;44.918;8.614;2023-02-28T20:00:58;5.80;67.07
77056;SHT30;67471;44.918;8.614;2023-02-28T20:04:10;5.78;67.20
77056;SHT30;67471;44.918;8.614;2023-02-28T20:07:16;5.68;67.37
77056;SHT30;67471;44.918;8.614;2023-02-28T20:10:20;5.79;67.00
77056;SHT30;67471;44.918;8.614;2023-02-28T20:13:24;5.73;67.35
77056;SHT30;67471;44.918;8.614;2023-02-28T20:16:28;5.71;67.44
77056;SHT30;67471;44.918;8.614;2023-02-28T20:19:33;5.78;67.46
77056;SHT30;67471;44.918;8.614;2023-02-28T20:22:38;5.76;67.27
77056;SHT30;67471;44.918;8.614;2023-02-28T20:25:42;5.86;67.01
77056;SHT30;67471;44.918;8.614;2023-02-28T20:28:46;5.76;67.12
77056;SHT30;67471;44.918;8.614;2023-02-28T20:31:50;5.80;67.20
77056;SHT30;67471;44.918;8.614;2023-02-28T20:34:54;5.79;67.06
77056;SHT30;67471;44.918;8.614;2023-02-28T20:37:58;5.72;67.25
77056;SHT30;67471;44.918;8.614;2023-02-28T20:41:03;5.62;67.46
77056;SHT30;67471;44.918;8.614;2023-02-28T20:44:10;5.78;67.09
77056;SHT30;67471;44.918;8.614;2023-02-28T20:47:15;5.73;67.25
77056;SHT30;67471;44.918;8.614;2023-02-28T20:50:18;5.78;67.51
77056;SHT30;67471;44.918;8.614;2023-02-28T20:53:23;5.61;67.58
77056;SHT30;67471;44.918;8.614;2023-02-28T20:56:27;5.58;67.96
77056;SHT30;67471;44.918;8.614;2023-02-28T20:59:32;5.47;68.26
77056;SHT30;67471;44.918;8.614;2023-02-28T21:02:36;5.42;68.58
77056;SHT30;67471;44.918;8.614;2023-02-28T21:05:40;5.41;68.84
77056;SHT30;67471;44.918;8.614;2023-02-28T21:08:44;5.30;68.60
77056;SHT30;67471;44.918;8.614;2023-02-28T21:11:49;5.31;68.29
77056;SHT30;67471;44.918;8.614;2023-02-28T21:14:54;5.26;68.48
77056;SHT30;67471;44.918;8.614;2023-02-28T21:18:00;5.18;68.69
77056;SHT30;67471;44.918;8.614;2023-02-28T21:21:08;5.09;68.98
77056;SHT30;67471;44.918;8.614;2023-02-28T21:24:18;5.04;69.20
77056;SHT30;67471;44.918;8.614;2023-02-28T21:27:22;4.93;69.44
77056;SHT30;67471;44.918;8.614;2023-02-28T21:30:26;4.86;69.59